sensor_id;sensor_type;location;lat;lon;timestamp;P1;durP1;ratioP1;P2;durP2;ratioP2
11677;SDS011;5895;41.950;24.372;2022-07-25T00:01:58;14.57;;;12.80;;
11677;SDS011;5895;41.950;24.372;2022-07-25T00:04:25;19.88;;;13.48;;
11677;SDS011;5895;41.950;24.372;2022-07-25T00:06:54;14.82;;;12.25;;
11677;SDS011;5895;41.950;24.372;2022-07-25T00:09:22;12.18;;;11.05;;
11677;SDS011;5895;41.950;24.372;2022-07-25T00:11:49;12.70;;;11.50;;
11677;SDS011;5895;41.950;24.372;2022-07-25T00:14:17;11.13;;;10.27;;
11677;SDS011;5895;41.950;24.372;2022-07-25T00:16:45;11.60;;;10.50;;
11677;SDS011;5895;41.950;24.372;2022-07-25T00:19:12;10.40;;;9.55;;
11677;SDS011;5895;41.950;24.372;2022-07-25T00:21:40;10.90;;;10.10;;
11677;SDS011;5895;41.950;24.372;2022-07-25T00:24:09;11.25;;;10.18;;
11677;SDS011;5895;41.950;24.372;2022-07-25T00:26:36;11.73;;;10.82;;
11677;SDS011;5895;41.950;24.372;2022-07-25T00:29:04;12.35;;;11.20;;
11677;SDS011;5895;41.950;24.372;2022-07-25T00:31:32;12.18;;;10.43;;
11677;SDS011;5895;41.950;24.372;2022-07-25T00:33:59;11.80;;;10.65;;
11677;SDS011;5895;41.950;24.372;2022-07-25T00:36:27;10.95;;;9.95;;
11677;SDS011;5895;41.950;24.372;2022-07-25T00:38:54;13.32;;;10.57;;
11677;SDS011;5895;41.950;24.372;2022-07-25T00:41:23;11.45;;;10.45;;
11677;SDS011;5895;41.950;24.372;2022-07-25T00:43:51;11.38;;;10.48;;
11677;SDS011;5895;41.950;24.372;2022-07-25T00:46:18;11.57;;;10.48;;
11677;SDS011;5895;41.950;24.372;2022-07-25T00:48:46;13.18;;;10.50;;
11677;SDS011;5895;41.950;24.372;2022-07-25T00:51:13;11.82;;;10.73;;
11677;SDS011;5895;41.950;24.372;2022-07-25T00:53:42;11.65;;;10.65;;
11677;SDS011;5895;41.950;24.372;2022-07-25T00:56:11;12.45;;;11.35;;
11677;SDS011;5895;41.950;24.372;2022-07-25T00:58:40;12.13;;;11.02;;
11677;SDS011;5895;41.950;24.372;2022-07-25T01:01:09;14.40;;;12.38;;
11677;SDS011;5895;41.950;24.372;2022-07-25T01:03:37;12.52;;;11.32;;
11677;SDS011;5895;41.950;24.372;2022-07-25T01:06:04;12.75;;;11.70;;
11677;SDS011;5895;41.950;24.372;2022-07-25T01:08:33;11.90;;;10.82;;
11677;SDS011;5895;41.950;24.372;2022-07-25T01:11:01;11.27;;;10.38;;
11677;SDS011;5895;41.950;24.372;2022-07-25T01:13:30;11.07;;;10.07;;
11677;SDS011;5895;41.950;24.372;2022-07-25T01:16:00;10.90;;;10.00;;
11677;SDS011;5895;41.950;24.372;2022-07-25T01:18:28;11.60;;;10.50;;
11677;SDS011;5895;41.950;24.372;2022-07-25T01:20:57;11.35;;;10.35;;
11677;SDS011;5895;41.950;24.372;2022-07-25T01:23:25;10.40;;;9.60;;
11677;SDS011;5895;41.950;24.372;2022-07-25T01:25:52;9.98;;;9.07;;
11677;SDS011;5895;41.950;24.372;2022-07-25T01:28:19;10.43;;;9.50;;
11677;SDS011;5895;41.950;24.372;2022-07-25T01:30:47;9.88;;;8.98;;
11677;SDS011;5895;41.950;24.372;2022-07-25T01:33:15;9.18;;;8.38;;
11677;SDS011;5895;41.950;24.372;2022-07-25T01:35:43;9.68;;;8.88;;
11677;SDS011;5895;41.950;24.372;2022-07-25T01:38:14;9.18;;;8.48;;
11677;SDS011;5895;41.950;24.372;2022-07-25T01:40:42;8.90;;;8.10;;
11677;SDS011;5895;41.950;24.372;2022-07-25T01:43:10;9.15;;;8.35;;
11677;SDS011;5895;41.950;24.372;2022-07-25T01:45:38;10.07;;;9.20;;
11677;SDS011;5895;41.950;24.372;2022-07-25T01:48:06;9.25;;;8.27;;
11677;SDS011;5895;41.950;24.372;2022-07-25T01:50:33;9.23;;;8.43;;
11677;SDS011;5895;41.950;24.372;2022-07-25T01:53:01;9.15;;;8.25;;
11677;SDS011;5895;41.950;24.372;2022-07-25T01:55:30;10.70;;;9.68;;
11677;SDS011;5895;41.950;24.372;2022-07-25T01:57:58;11.90;;;10.50;;
11677;SDS011;5895;41.950;24.372;2022-07-25T02:00:25;11.90;;;10.80;;
11677;SDS011;5895;41.950;24.372;2022-07-25T02:02:53;12.27;;;11.27;;
11677;SDS011;5895;41.950;24.372;2022-07-25T02:05:34;11.40;;;10.40;;
11677;SDS011;5895;41.950;24.372;2022-07-25T02:08:01;11.55;;;10.65;;
11677;SDS011;5895;41.950;24.372;2022-07-25T02:10:31;11.63;;;10.63;;
11677;SDS011;5895;41.950;24.372;2022-07-25T02:12:59;12.23;;;11.32;;
11677;SDS011;5895;41.950;24.372;2022-07-25T02:15:27;12.82;;;11.73;;
11677;SDS011;5895;41.950;24.372;2022-07-25T02:17:54;13.82;;;12.73;;
11677;SDS011;5895;41.950;24.372;2022-07-25T02:20:22;14.55;;;13.35;;
11677;SDS011;5895;41.950;24.372;2022-07-25T02:22:49;14.55;;;13.23;;
11677;SDS011;5895;41.950;24.372;2022-07-25T02:25:17;14.95;;;13.75;;
11677;SDS011;5895;41.950;24.372;2022-07-25T02:27:46;14.52;;;13.32;;
11677;SDS011;5895;41.950;24.372;2022-07-25T02:30:14;14.48;;;13.18;;
11677;SDS011;5895;41.950;24.372;2022-07-25T02:32:42;15.82;;;14.20;;
11677;SDS011;5895;41.950;24.372;2022-07-25T02:35:09;14.80;;;13.60;;
11677;SDS011;5895;41.950;24.372;2022-07-25T02:37:37;15.60;;;14.32;;
11677;SDS011;5895;41.950;24.372;2022-07-25T02:40:05;14.65;;;13.15;;
11677;SDS011;5895;41.950;24.372;2022-07-25T02:42:33;15.43;;;14.20;;
11677;SDS011;5895;41.950;24.372;2022-07-25T02:45:03;14.95;;;13.75;;
11677;SDS011;5895;41.950;24.372;2022-07-25T02:47:31;14.38;;;13.18;;
11677;SDS011;5895;41.950;24.372;2022-07-25T02:49:59;14.25;;;13.05;;
11677;SDS011;5895;41.950;24.372;2022-07-25T02:52:27;14.15;;;12.90;;
11677;SDS011;5895;41.950;24.372;2022-07-25T02:54:54;15.63;;;14.23;;
11677;SDS011;5895;41.950;24.372;2022-07-25T02:57:21;14.95;;;13.75;;
11677;SDS011;5895;41.950;24.372;2022-07-25T02:59:49;15.80;;;14.57;;
11677;SDS011;5895;41.950;24.372;2022-07-25T03:02:18;15.80;;;14.45;;
11677;SDS011;5895;41.950;24.372;2022-07-25T03:04:46;15.30;;;13.90;;
11677;SDS011;5895;41.950;24.372;2022-07-25T03:07:13;14.50;;;13.38;;
11677;SDS011;5895;41.950;24.372;2022-07-25T03:09:40;14.30;;;13.10;;
11677;SDS011;5895;41.950;24.372;2022-07-25T03:12:08;14.30;;;13.10;;
11677;SDS011;5895;41.950;24.372;2022-07-25T03:14:36;13.23;;;12.13;;
11677;SDS011;5895;41.950;24.372;2022-07-25T03:17:03;12.88;;;11.68;;
11677;SDS011;5895;41.950;24.372;2022-07-25T03:19:32;13.95;;;12.75;;
11677;SDS011;5895;41.950;24.372;2022-07-25T03:22:00;12.93;;;11.82;;
11677;SDS011;5895;41.950;24.372;2022-07-25T03:24:28;14.10;;;12.93;;
11677;SDS011;5895;41.950;24.372;2022-07-25T03:26:55;16.48;;;14.82;;
11677;SDS011;5895;41.950;24.372;2022-07-25T03:29:23;15.65;;;14.35;;
11677;SDS011;5895;41.950;24.372;2022-07-25T03:31:50;16.60;;;15.20;;
11677;SDS011;5895;41.950;24.372;2022-07-25T03:34:18;17.17;;;15.63;;
11677;SDS011;5895;41.950;24.372;2022-07-25T03:36:47;16.30;;;15.00;;
11677;SDS011;5895;41.950;24.372;2022-07-25T03:39:14;16.40;;;15.00;;
11677;SDS011;5895;41.950;24.372;2022-07-25T03:41:42;16.40;;;15.10;;
11677;SDS011;5895;41.950;24.372;2022-07-25T03:44:10;15.60;;;14.20;;
11677;SDS011;5895;41.950;24.372;2022-07-25T03:46:38;16.13;;;14.63;;
11677;SDS011;5895;41.950;24.372;2022-07-25T03:49:05;15.60;;;14.23;;
11677;SDS011;5895;41.950;24.372;2022-07-25T03:51:33;15.05;;;13.18;;
11677;SDS011;5895;41.950;24.372;2022-07-25T03:54:02;14.38;;;13.25;;
11677;SDS011;5895;41.950;24.372;2022-07-25T03:56:31;17.92;;;13.07;;
11677;SDS011;5895;41.950;24.372;2022-07-25T03:59:04;14.00;;;12.90;;
11677;SDS011;5895;41.950;24.372;2022-07-25T04:01:32;12.90;;;11.80;;
11677;SDS011;5895;41.950;24.372;2022-07-25T04:04:00;12.05;;;11.00;;
11677;SDS011;5895;41.950;24.372;2022-07-25T04:06:29;12.00;;;11.00;;
11677;SDS011;5895;41.950;24.372;2022-07-25T04:08:56;13.00;;;11.90;;
11677;SDS011;5895;41.950;24.372;2022-07-25T04:11:26;13.50;;;12.27;;
11677;SDS011;5895;41.950;24.372;2022-07-25T04:13:55;13.25;;;12.05;;
11677;SDS011;5895;41.950;24.372;2022-07-25T04:16:23;14.93;;;13.40;;
11677;SDS011;5895;41.950;24.372;2022-07-25T04:18:51;13.75;;;12.45;;
11677;SDS011;5895;41.950;24.372;2022-07-25T04:21:18;12.93;;;11.73;;
11677;SDS011;5895;41.950;24.372;2022-07-25T04:23:46;13.55;;;12.20;;
11677;SDS011;5895;41.950;24.372;2022-07-25T04:26:13;16.40;;;14.80;;
11677;SDS011;5895;41.950;24.372;2022-07-25T04:28:43;18.92;;;16.95;;
11677;SDS011;5895;41.950;24.372;2022-07-25T04:31:11;12.48;;;11.20;;
11677;SDS011;5895;41.950;24.372;2022-07-25T04:33:38;11.20;;;10.20;;
11677;SDS011;5895;41.950;24.372;2022-07-25T04:36:06;11.40;;;10.30;;
11677;SDS011;5895;41.950;24.372;2022-07-25T04:38:34;13.52;;;12.13;;
11677;SDS011;5895;41.950;24.372;2022-07-25T04:41:02;14.32;;;13.07;;
11677;SDS011;5895;41.950;24.372;2022-07-25T04:43:30;15.90;;;13.75;;
11677;SDS011;5895;41.950;24.372;2022-07-25T04:45:59;13.00;;;11.48;;
11677;SDS011;5895;41.950;24.372;2022-07-25T04:48:26;12.75;;;11.55;;
11677;SDS011;5895;41.950;24.372;2022-07-25T04:50:54;11.43;;;10.35;;
11677;SDS011;5895;41.950;24.372;2022-07-25T04:53:22;11.07;;;10.07;;
11677;SDS011;5895;41.950;24.372;2022-07-25T04:55:50;11.45;;;10.40;;
11677;SDS011;5895;41.950;24.372;2022-07-25T04:58:17;10.73;;;9.73;;
11677;SDS011;5895;41.950;24.372;2022-07-25T05:00:45;10.50;;;9.60;;
11677;SDS011;5895;41.950;24.372;2022-07-25T05:03:14;10.85;;;9.93;;
11677;SDS011;5895;41.950;24.372;2022-07-25T05:05:42;10.68;;;9.77;;
11677;SDS011;5895;41.950;24.372;2022-07-25T05:08:10;10.35;;;9.45;;
11677;SDS011;5895;41.950;24.372;2022-07-25T05:10:37;10.73;;;9.63;;
11677;SDS011;5895;41.950;24.372;2022-07-25T05:13:05;12.10;;;10.80;;
11677;SDS011;5895;41.950;24.372;2022-07-25T05:15:33;10.60;;;9.80;;
11677;SDS011;5895;41.950;24.372;2022-07-25T05:18:01;12.80;;;11.40;;
11677;SDS011;5895;41.950;24.372;2022-07-25T05:20:30;11.75;;;10.70;;
11677;SDS011;5895;41.950;24.372;2022-07-25T05:22:57;9.82;;;8.82;;
11677;SDS011;5895;41.950;24.372;2022-07-25T05:25:25;12.52;;;11.05;;
11677;SDS011;5895;41.950;24.372;2022-07-25T05:27:53;18.50;;;13.77;;
11677;SDS011;5895;41.950;24.372;2022-07-25T05:30:23;12.40;;;10.40;;
11677;SDS011;5895;41.950;24.372;2022-07-25T05:32:51;12.80;;;11.27;;
11677;SDS011;5895;41.950;24.372;2022-07-25T05:35:19;9.13;;;8.32;;
11677;SDS011;5895;41.950;24.372;2022-07-25T05:37:48;11.35;;;9.30;;
11677;SDS011;5895;41.950;24.372;2022-07-25T05:40:16;12.88;;;9.13;;
11677;SDS011;5895;41.950;24.372;2022-07-25T05:42:44;11.80;;;8.27;;
11677;SDS011;5895;41.950;24.372;2022-07-25T05:45:11;9.98;;;9.07;;
11677;SDS011;5895;41.950;24.372;2022-07-25T05:47:39;9.43;;;8.52;;
11677;SDS011;5895;41.950;24.372;2022-07-25T05:50:07;10.13;;;9.23;;
11677;SDS011;5895;41.950;24.372;2022-07-25T05:52:35;10.02;;;9.13;;
11677;SDS011;5895;41.950;24.372;2022-07-25T05:55:05;11.27;;;9.82;;
11677;SDS011;5895;41.950;24.372;2022-07-25T05:57:33;9.88;;;9.05;;
11677;SDS011;5895;41.950;24.372;2022-07-25T06:00:02;11.60;;;9.27;;
11677;SDS011;5895;41.950;24.372;2022-07-25T06:02:31;9.30;;;8.50;;
11677;SDS011;5895;41.950;24.372;2022-07-25T06:04:59;9.60;;;8.63;;
11677;SDS011;5895;41.950;24.372;2022-07-25T06:07:26;10.50;;;8.88;;
11677;SDS011;5895;41.950;24.372;2022-07-25T06:09:53;8.43;;;7.72;;
11677;SDS011;5895;41.950;24.372;2022-07-25T06:12:23;10.77;;;8.23;;
11677;SDS011;5895;41.950;24.372;2022-07-25T06:14:51;9.18;;;8.38;;
11677;SDS011;5895;41.950;24.372;2022-07-25T06:17:19;9.60;;;8.75;;
11677;SDS011;5895;41.950;24.372;2022-07-25T06:19:46;12.13;;;8.88;;
11677;SDS011;5895;41.950;24.372;2022-07-25T06:22:14;11.05;;;9.60;;
11677;SDS011;5895;41.950;24.372;2022-07-25T06:24:43;9.35;;;8.40;;
11677;SDS011;5895;41.950;24.372;2022-07-25T06:27:11;11.82;;;8.82;;
11677;SDS011;5895;41.950;24.372;2022-07-25T06:29:40;9.70;;;8.57;;
11677;SDS011;5895;41.950;24.372;2022-07-25T06:32:08;9.68;;;8.75;;
11677;SDS011;5895;41.950;24.372;2022-07-25T06:34:36;9.63;;;8.70;;
11677;SDS011;5895;41.950;24.372;2022-07-25T06:37:04;9.90;;;8.85;;
11677;SDS011;5895;41.950;24.372;2022-07-25T06:39:31;9.95;;;9.02;;
11677;SDS011;5895;41.950;24.372;2022-07-25T06:41:59;9.50;;;8.68;;
11677;SDS011;5895;41.950;24.372;2022-07-25T06:44:30;8.90;;;8.00;;
11677;SDS011;5895;41.950;24.372;2022-07-25T06:47:00;10.48;;;8.55;;
11677;SDS011;5895;41.950;24.372;2022-07-25T06:49:29;9.15;;;8.25;;
11677;SDS011;5895;41.950;24.372;2022-07-25T06:51:57;9.52;;;8.23;;
11677;SDS011;5895;41.950;24.372;2022-07-25T06:54:25;9.38;;;8.57;;
11677;SDS011;5895;41.950;24.372;2022-07-25T06:56:52;9.20;;;8.30;;
11677;SDS011;5895;41.950;24.372;2022-07-25T06:59:20;9.23;;;8.43;;
11677;SDS011;5895;41.950;24.372;2022-07-25T07:01:47;9.30;;;8.50;;
11677;SDS011;5895;41.950;24.372;2022-07-25T07:04:17;9.07;;;8.25;;
11677;SDS011;5895;41.950;24.372;2022-07-25T07:06:44;9.40;;;8.38;;
11677;SDS011;5895;41.950;24.372;2022-07-25T07:09:12;8.57;;;7.88;;
11677;SDS011;5895;41.950;24.372;2022-07-25T07:11:39;8.45;;;7.65;;
11677;SDS011;5895;41.950;24.372;2022-07-25T07:14:07;11.15;;;8.10;;
11677;SDS011;5895;41.950;24.372;2022-07-25T07:16:34;9.18;;;8.15;;
11677;SDS011;5895;41.950;24.372;2022-07-25T07:19:02;9.15;;;8.35;;
11677;SDS011;5895;41.950;24.372;2022-07-25T07:21:31;8.57;;;7.72;;
11677;SDS011;5895;41.950;24.372;2022-07-25T07:23:58;7.85;;;7.13;;
11677;SDS011;5895;41.950;24.372;2022-07-25T07:26:26;9.65;;;8.75;;
11677;SDS011;5895;41.950;24.372;2022-07-25T07:28:53;8.88;;;8.07;;
11677;SDS011;5895;41.950;24.372;2022-07-25T07:31:21;9.63;;;8.73;;
11677;SDS011;5895;41.950;24.372;2022-07-25T07:33:49;11.77;;;8.30;;
11677;SDS011;5895;41.950;24.372;2022-07-25T07:36:16;8.95;;;8.07;;
11677;SDS011;5895;41.950;24.372;2022-07-25T07:38:45;9.93;;;8.40;;
11677;SDS011;5895;41.950;24.372;2022-07-25T07:41:13;8.80;;;8.00;;
11677;SDS011;5895;41.950;24.372;2022-07-25T07:43:41;9.02;;;8.13;;
11677;SDS011;5895;41.950;24.372;2022-07-25T07:46:09;8.45;;;7.55;;
11677;SDS011;5895;41.950;24.372;2022-07-25T07:48:36;8.55;;;7.75;;
11677;SDS011;5895;41.950;24.372;2022-07-25T07:51:05;9.82;;;7.47;;
11677;SDS011;5895;41.950;24.372;2022-07-25T07:53:32;9.60;;;8.15;;
11677;SDS011;5895;41.950;24.372;2022-07-25T07:56:15;8.93;;;8.13;;
11677;SDS011;5895;41.950;24.372;2022-07-25T07:58:44;9.35;;;8.45;;
11677;SDS011;5895;41.950;24.372;2022-07-25T08:01:11;8.88;;;8.00;;
11677;SDS011;5895;41.950;24.372;2022-07-25T08:03:39;7.78;;;7.07;;
11677;SDS011;5895;41.950;24.372;2022-07-25T08:06:07;8.77;;;7.85;;
11677;SDS011;5895;41.950;24.372;2022-07-25T08:08:34;8.68;;;7.35;;
11677;SDS011;5895;41.950;24.372;2022-07-25T08:11:02;7.80;;;7.10;;
11677;SDS011;5895;41.950;24.372;2022-07-25T08:13:31;8.40;;;7.53;;
11677;SDS011;5895;41.950;24.372;2022-07-25T08:16:00;7.55;;;6.88;;
11677;SDS011;5895;41.950;24.372;2022-07-25T08:18:29;8.32;;;7.45;;
11677;SDS011;5895;41.950;24.372;2022-07-25T08:20:58;8.80;;;7.28;;
11677;SDS011;5895;41.950;24.372;2022-07-25T08:23:27;7.82;;;7.07;;
11677;SDS011;5895;41.950;24.372;2022-07-25T08:25:56;8.15;;;7.45;;
11677;SDS011;5895;41.950;24.372;2022-07-25T08:28:23;8.52;;;7.40;;
11677;SDS011;5895;41.950;24.372;2022-07-25T08:30:52;8.13;;;7.32;;
11677;SDS011;5895;41.950;24.372;2022-07-25T08:33:20;8.75;;;7.28;;
11677;SDS011;5895;41.950;24.372;2022-07-25T08:35:49;8.20;;;7.03;;
11677;SDS011;5895;41.950;24.372;2022-07-25T08:38:19;8.40;;;7.45;;
11677;SDS011;5895;41.950;24.372;2022-07-25T08:40:48;7.22;;;6.53;;
11677;SDS011;5895;41.950;24.372;2022-07-25T08:43:17;8.18;;;7.47;;
11677;SDS011;5895;41.950;24.372;2022-07-25T08:45:46;7.72;;;7.03;;
11677;SDS011;5895;41.950;24.372;2022-07-25T08:48:17;8.25;;;7.43;;
11677;SDS011;5895;41.950;24.372;2022-07-25T08:50:46;8.77;;;7.85;;
11677;SDS011;5895;41.950;24.372;2022-07-25T08:53:16;9.75;;;7.85;;
11677;SDS011;5895;41.950;24.372;2022-07-25T08:55:45;8.48;;;7.68;;
11677;SDS011;5895;41.950;24.372;2022-07-25T08:58:14;7.85;;;7.25;;
11677;SDS011;5895;41.950;24.372;2022-07-25T09:00:42;8.88;;;8.07;;
11677;SDS011;5895;41.950;24.372;2022-07-25T09:03:11;7.70;;;7.07;;
11677;SDS011;5895;41.950;24.372;2022-07-25T09:05:40;7.80;;;7.07;;
11677;SDS011;5895;41.950;24.372;2022-07-25T09:08:08;7.95;;;7.35;;
11677;SDS011;5895;41.950;24.372;2022-07-25T09:10:37;8.18;;;7.38;;
11677;SDS011;5895;41.950;24.372;2022-07-25T09:13:08;8.55;;;7.72;;
11677;SDS011;5895;41.950;24.372;2022-07-25T09:15:39;7.80;;;7.03;;
11677;SDS011;5895;41.950;24.372;2022-07-25T09:18:10;7.35;;;6.63;;
11677;SDS011;5895;41.950;24.372;2022-07-25T09:20:42;8.10;;;7.30;;
11677;SDS011;5895;41.950;24.372;2022-07-25T09:23:11;10.30;;;7.15;;
11677;SDS011;5895;41.950;24.372;2022-07-25T09:25:41;8.38;;;7.57;;
11677;SDS011;5895;41.950;24.372;2022-07-25T09:28:09;8.07;;;7.00;;
11677;SDS011;5895;41.950;24.372;2022-07-25T09:30:51;8.20;;;6.85;;
11677;SDS011;5895;41.950;24.372;2022-07-25T09:33:20;8.05;;;7.35;;
11677;SDS011;5895;41.950;24.372;2022-07-25T09:35:50;8.00;;;7.05;;
11677;SDS011;5895;41.950;24.372;2022-07-25T09:38:20;8.45;;;7.65;;
11677;SDS011;5895;41.950;24.372;2022-07-25T09:40:55;8.05;;;7.35;;
11677;SDS011;5895;41.950;24.372;2022-07-25T09:43:33;7.45;;;6.85;;
11677;SDS011;5895;41.950;24.372;2022-07-25T09:46:02;7.95;;;6.72;;
11677;SDS011;5895;41.950;24.372;2022-07-25T09:48:30;7.40;;;6.72;;
11677;SDS011;5895;41.950;24.372;2022-07-25T09:51:00;7.82;;;7.13;;
11677;SDS011;5895;41.950;24.372;2022-07-25T09:53:28;6.75;;;6.05;;
11677;SDS011;5895;41.950;24.372;2022-07-25T09:55:55;6.85;;;6.18;;
11677;SDS011;5895;41.950;24.372;2022-07-25T09:58:23;7.20;;;6.60;;
11677;SDS011;5895;41.950;24.372;2022-07-25T10:00:51;7.20;;;6.50;;
11677;SDS011;5895;41.950;24.372;2022-07-25T10:03:24;6.80;;;6.20;;
11677;SDS011;5895;41.950;24.372;2022-07-25T10:06:10;6.90;;;6.30;;
11677;SDS011;5895;41.950;24.372;2022-07-25T10:08:45;7.28;;;6.60;;
11677;SDS011;5895;41.950;24.372;2022-07-25T10:11:20;7.47;;;6.18;;
11677;SDS011;5895;41.950;24.372;2022-07-25T10:13:48;6.72;;;6.22;;
11677;SDS011;5895;41.950;24.372;2022-07-25T10:16:16;6.35;;;5.85;;
11677;SDS011;5895;41.950;24.372;2022-07-25T10:18:48;7.25;;;6.13;;
11677;SDS011;5895;41.950;24.372;2022-07-25T10:21:19;6.75;;;6.18;;
11677;SDS011;5895;41.950;24.372;2022-07-25T10:23:56;7.05;;;6.35;;
11677;SDS011;5895;41.950;24.372;2022-07-25T10:26:28;7.95;;;6.68;;
11677;SDS011;5895;41.950;24.372;2022-07-25T10:28:56;7.32;;;6.72;;
11677;SDS011;5895;41.950;24.372;2022-07-25T10:31:24;7.85;;;6.75;;
11677;SDS011;5895;41.950;24.372;2022-07-25T10:34:01;7.38;;;6.68;;
11677;SDS011;5895;41.950;24.372;2022-07-25T10:36:41;7.28;;;6.57;;
11677;SDS011;5895;41.950;24.372;2022-07-25T10:39:10;7.50;;;6.90;;
11677;SDS011;5895;41.950;24.372;2022-07-25T10:41:39;7.22;;;6.63;;
11677;SDS011;5895;41.950;24.372;2022-07-25T10:44:10;6.90;;;6.20;;
11677;SDS011;5895;41.950;24.372;2022-07-25T10:46:39;6.82;;;6.32;;
11677;SDS011;5895;41.950;24.372;2022-07-25T10:49:14;9.07;;;7.35;;
11677;SDS011;5895;41.950;24.372;2022-07-25T10:51:53;9.02;;;6.75;;
11677;SDS011;5895;41.950;24.372;2022-07-25T10:54:22;6.72;;;6.13;;
11677;SDS011;5895;41.950;24.372;2022-07-25T10:56:54;8.52;;;7.30;;
11677;SDS011;5895;41.950;24.372;2022-07-25T10:59:26;7.63;;;6.57;;
11677;SDS011;5895;41.950;24.372;2022-07-25T11:01:55;6.63;;;6.00;;
11677;SDS011;5895;41.950;24.372;2022-07-25T11:04:23;6.95;;;6.28;;
11677;SDS011;5895;41.950;24.372;2022-07-25T11:06:53;7.13;;;6.53;;
11677;SDS011;5895;41.950;24.372;2022-07-25T11:09:21;6.90;;;6.30;;
11677;SDS011;5895;41.950;24.372;2022-07-25T11:11:50;8.48;;;7.18;;
11677;SDS011;5895;41.950;24.372;2022-07-25T11:14:19;7.20;;;6.50;;
11677;SDS011;5895;41.950;24.372;2022-07-25T11:16:49;6.68;;;6.18;;
11677;SDS011;5895;41.950;24.372;2022-07-25T11:19:18;7.05;;;6.45;;
11677;SDS011;5895;41.950;24.372;2022-07-25T11:21:48;6.72;;;5.75;;
11677;SDS011;5895;41.950;24.372;2022-07-25T11:24:18;6.00;;;5.50;;
11677;SDS011;5895;41.950;24.372;2022-07-25T11:26:47;6.95;;;6.25;;
11677;SDS011;5895;41.950;24.372;2022-07-25T11:29:20;7.03;;;6.43;;
11677;SDS011;5895;41.950;24.372;2022-07-25T11:31:52;8.00;;;6.22;;
11677;SDS011;5895;41.950;24.372;2022-07-25T11:34:21;6.88;;;6.28;;
11677;SDS011;5895;41.950;24.372;2022-07-25T11:36:50;6.40;;;5.90;;
11677;SDS011;5895;41.950;24.372;2022-07-25T11:39:24;8.63;;;6.35;;
11677;SDS011;5895;41.950;24.372;2022-07-25T11:41:59;6.55;;;5.93;;
11677;SDS011;5895;41.950;24.372;2022-07-25T11:44:32;6.03;;;5.53;;
11677;SDS011;5895;41.950;24.372;2022-07-25T11:47:01;6.60;;;6.00;;
11677;SDS011;5895;41.950;24.372;2022-07-25T11:49:30;7.00;;;6.30;;
11677;SDS011;5895;41.950;24.372;2022-07-25T11:52:16;7.30;;;6.60;;
11677;SDS011;5895;41.950;24.372;2022-07-25T11:54:51;7.05;;;6.15;;
11677;SDS011;5895;41.950;24.372;2022-07-25T11:57:20;6.82;;;6.15;;
11677;SDS011;5895;41.950;24.372;2022-07-25T11:59:51;6.75;;;6.15;;
11677;SDS011;5895;41.950;24.372;2022-07-25T12:02:20;7.93;;;7.13;;
11677;SDS011;5895;41.950;24.372;2022-07-25T12:04:52;7.18;;;6.47;;
11677;SDS011;5895;41.950;24.372;2022-07-25T12:07:21;7.85;;;6.35;;
11677;SDS011;5895;41.950;24.372;2022-07-25T12:10:00;7.93;;;7.18;;
11677;SDS011;5895;41.950;24.372;2022-07-25T12:12:28;7.20;;;6.55;;
11677;SDS011;5895;41.950;24.372;2022-07-25T12:15:08;8.02;;;7.32;;
11677;SDS011;5895;41.950;24.372;2022-07-25T12:17:37;8.40;;;7.60;;
11677;SDS011;5895;41.950;24.372;2022-07-25T12:20:10;8.02;;;6.68;;
11677;SDS011;5895;41.950;24.372;2022-07-25T12:22:41;7.13;;;6.57;;
11677;SDS011;5895;41.950;24.372;2022-07-25T12:25:10;6.70;;;6.10;;
11677;SDS011;5895;41.950;24.372;2022-07-25T12:27:38;7.22;;;6.57;;
11677;SDS011;5895;41.950;24.372;2022-07-25T12:30:06;7.00;;;6.43;;
11677;SDS011;5895;41.950;24.372;2022-07-25T12:32:36;7.15;;;6.30;;
11677;SDS011;5895;41.950;24.372;2022-07-25T12:35:05;6.43;;;5.93;;
11677;SDS011;5895;41.950;24.372;2022-07-25T12:37:34;7.32;;;6.72;;
11677;SDS011;5895;41.950;24.372;2022-07-25T12:40:02;6.75;;;6.15;;
11677;SDS011;5895;41.950;24.372;2022-07-25T12:42:33;6.70;;;6.13;;
11677;SDS011;5895;41.950;24.372;2022-07-25T12:45:00;7.30;;;6.13;;
11677;SDS011;5895;41.950;24.372;2022-07-25T12:47:28;7.00;;;6.32;;
11677;SDS011;5895;41.950;24.372;2022-07-25T12:49:56;6.80;;;6.20;;
11677;SDS011;5895;41.950;24.372;2022-07-25T12:52:24;7.00;;;6.45;;
11677;SDS011;5895;41.950;24.372;2022-07-25T12:54:53;6.70;;;6.10;;
11677;SDS011;5895;41.950;24.372;2022-07-25T12:57:24;6.93;;;6.32;;
11677;SDS011;5895;41.950;24.372;2022-07-25T12:59:54;6.50;;;6.00;;
11677;SDS011;5895;41.950;24.372;2022-07-25T13:02:22;6.90;;;6.10;;
11677;SDS011;5895;41.950;24.372;2022-07-25T13:04:50;7.32;;;6.30;;
11677;SDS011;5895;41.950;24.372;2022-07-25T13:07:18;6.15;;;5.63;;
11677;SDS011;5895;41.950;24.372;2022-07-25T13:09:45;6.72;;;6.15;;
11677;SDS011;5895;41.950;24.372;2022-07-25T13:12:14;7.20;;;6.50;;
11677;SDS011;5895;41.950;24.372;2022-07-25T13:14:42;6.85;;;6.35;;
11677;SDS011;5895;41.950;24.372;2022-07-25T13:17:11;6.95;;;6.30;;
11677;SDS011;5895;41.950;24.372;2022-07-25T13:19:40;6.57;;;6.07;;
11677;SDS011;5895;41.950;24.372;2022-07-25T13:22:10;7.43;;;6.65;;
11677;SDS011;5895;41.950;24.372;2022-07-25T13:24:37;6.20;;;5.70;;
11677;SDS011;5895;41.950;24.372;2022-07-25T13:27:05;6.63;;;6.03;;
11677;SDS011;5895;41.950;24.372;2022-07-25T13:29:34;8.05;;;6.18;;
11677;SDS011;5895;41.950;24.372;2022-07-25T13:32:05;6.13;;;5.53;;
11677;SDS011;5895;41.950;24.372;2022-07-25T13:34:34;6.57;;;6.03;;
11677;SDS011;5895;41.950;24.372;2022-07-25T13:37:02;6.75;;;6.05;;
11677;SDS011;5895;41.950;24.372;2022-07-25T13:39:30;7.97;;;5.85;;
11677;SDS011;5895;41.950;24.372;2022-07-25T13:41:59;5.80;;;5.28;;
11677;SDS011;5895;41.950;24.372;2022-07-25T13:44:28;7.15;;;6.45;;
11677;SDS011;5895;41.950;24.372;2022-07-25T13:46:56;6.95;;;6.35;;
11677;SDS011;5895;41.950;24.372;2022-07-25T13:49:24;6.45;;;5.80;;
11677;SDS011;5895;41.950;24.372;2022-07-25T13:51:55;7.70;;;7.00;;
11677;SDS011;5895;41.950;24.372;2022-07-25T13:54:22;7.03;;;6.32;;
11677;SDS011;5895;41.950;24.372;2022-07-25T13:56:50;6.82;;;6.13;;
11677;SDS011;5895;41.950;24.372;2022-07-25T13:59:19;6.15;;;5.60;;
11677;SDS011;5895;41.950;24.372;2022-07-25T14:01:46;6.35;;;5.85;;
11677;SDS011;5895;41.950;24.372;2022-07-25T14:04:15;6.75;;;5.97;;
11677;SDS011;5895;41.950;24.372;2022-07-25T14:06:43;6.15;;;5.65;;
11677;SDS011;5895;41.950;24.372;2022-07-25T14:09:17;6.40;;;5.90;;
11677;SDS011;5895;41.950;24.372;2022-07-25T14:11:46;7.10;;;5.85;;
11677;SDS011;5895;41.950;24.372;2022-07-25T14:14:15;6.30;;;5.82;;
11677;SDS011;5895;41.950;24.372;2022-07-25T14:16:45;6.88;;;6.32;;
11677;SDS011;5895;41.950;24.372;2022-07-25T14:19:13;6.80;;;6.20;;
11677;SDS011;5895;41.950;24.372;2022-07-25T14:21:43;6.80;;;6.10;;
11677;SDS011;5895;41.950;24.372;2022-07-25T14:24:11;7.00;;;6.40;;
11677;SDS011;5895;41.950;24.372;2022-07-25T14:26:42;6.60;;;6.00;;
11677;SDS011;5895;41.950;24.372;2022-07-25T14:29:14;7.18;;;6.47;;
11677;SDS011;5895;41.950;24.372;2022-07-25T14:31:42;7.55;;;5.95;;
11677;SDS011;5895;41.950;24.372;2022-07-25T14:34:11;7.07;;;6.20;;
11677;SDS011;5895;41.950;24.372;2022-07-25T14:36:41;6.80;;;6.20;;
11677;SDS011;5895;41.950;24.372;2022-07-25T14:39:12;7.18;;;6.45;;
11677;SDS011;5895;41.950;24.372;2022-07-25T14:41:42;7.40;;;6.68;;
11677;SDS011;5895;41.950;24.372;2022-07-25T14:44:10;6.78;;;6.22;;
11677;SDS011;5895;41.950;24.372;2022-07-25T14:46:38;6.70;;;6.10;;
11677;SDS011;5895;41.950;24.372;2022-07-25T14:49:07;7.13;;;6.50;;